ARG1843 SAWC-SAWH
Flight info
| Callsign | ARG1843 |
|---|---|
| Flight time | 1h 6m |
| Altitude | 37000 |
| Route | DEVIS2D DEVIS UW52 GAL UW42 GRA DCT DABLI DABLI1Q |
| Aircraft | B738/M-SDE2E3FGHIRWXY/LB1 |
Departure
| Time | 2026-04-26 20:11 |
|---|---|
| Airport | El Calafate - Commander Armando Tola International Airport (SAWC) |
Arrival
| Time | 2026-04-26 21:17 |
|---|---|
| Airport | Ushuaia - Malvinas Argentinas International Airport (SAWH) |
| Time | Latitude | Longitude | Altitude | Speed | Heading |
|---|---|---|---|---|---|
| 2026-04-26 19:36 | -50.28331 | -72.05264 | 640 ft | 0 kts | 265° |
| 2026-04-26 20:02 | -50.28330 | -72.05254 | 640 ft | 2 kts | 278° |
| 2026-04-26 20:02 | -50.28332 | -72.05231 | 641 ft | 4 kts | 207° |
| 2026-04-26 20:02 | -50.28324 | -72.05231 | 644 ft | 4 kts | 167° |
| 2026-04-26 20:03 | -50.28293 | -72.05238 | 641 ft | 4 kts | 173° |
| 2026-04-26 20:03 | -50.28267 | -72.05243 | 640 ft | 3 kts | 186° |
| 2026-04-26 20:03 | -50.28251 | -72.05228 | 642 ft | 4 kts | 243° |
| 2026-04-26 20:03 | -50.28244 | -72.05190 | 641 ft | 3 kts | 270° |
| 2026-04-26 20:04 | -50.28246 | -72.05150 | 641 ft | 1 kts | 267° |
| 2026-04-26 20:04 | -50.28246 | -72.05149 | 641 ft | 1 kts | 267° |
| 2026-04-26 20:05 | -50.28246 | -72.05150 | 641 ft | 0 kts | 267° |
| 2026-04-26 20:05 | -50.28246 | -72.05156 | 641 ft | 2 kts | 267° |
| 2026-04-26 20:06 | -50.28247 | -72.05199 | 641 ft | 6 kts | 267° |
| 2026-04-26 20:06 | -50.28251 | -72.05272 | 640 ft | 7 kts | 263° |
| 2026-04-26 20:06 | -50.28255 | -72.05347 | 640 ft | 7 kts | 272° |
| 2026-04-26 20:06 | -50.28222 | -72.05390 | 640 ft | 7 kts | 7° |
| 2026-04-26 20:07 | -50.28176 | -72.05399 | 640 ft | 7 kts | 342° |
| 2026-04-26 20:07 | -50.28131 | -72.05412 | 640 ft | 7 kts | 353° |
| 2026-04-26 20:07 | -50.28120 | -72.05414 | 641 ft | 1 kts | 353° |
| 2026-04-26 20:07 | -50.28066 | -72.05421 | 641 ft | 15 kts | 2° |
| 2026-04-26 20:08 | -50.28019 | -72.05297 | 642 ft | 15 kts | 85° |
| 2026-04-26 20:08 | -50.28008 | -72.05136 | 643 ft | 16 kts | 84° |
| 2026-04-26 20:08 | -50.27997 | -72.04961 | 643 ft | 16 kts | 85° |
| 2026-04-26 20:08 | -50.27986 | -72.04766 | 643 ft | 22 kts | 85° |
| 2026-04-26 20:09 | -50.27968 | -72.04482 | 642 ft | 30 kts | 85° |
| 2026-04-26 20:09 | -50.27949 | -72.04118 | 640 ft | 37 kts | 85° |
| 2026-04-26 20:09 | -50.27950 | -72.03715 | 640 ft | 33 kts | 109° |
| 2026-04-26 20:09 | -50.27932 | -72.03605 | 641 ft | 2 kts | 22° |
| 2026-04-26 20:10 | -50.27923 | -72.03610 | 643 ft | 3 kts | 331° |
| 2026-04-26 20:10 | -50.27920 | -72.03690 | 641 ft | 19 kts | 263° |
| 2026-04-26 20:10 | -50.27963 | -72.04362 | 641 ft | 104 kts | 265° |
| 2026-04-26 20:10 | -50.28055 | -72.05869 | 676 ft | 169 kts | 263° |
| 2026-04-26 20:11 | -50.28165 | -72.07821 | 1466 ft | 184 kts | 266° |
| 2026-04-26 20:11 | -50.28268 | -72.09871 | 2563 ft | 189 kts | 267° |
| 2026-04-26 20:11 | -50.28388 | -72.12030 | 3149 ft | 213 kts | 266° |
| 2026-04-26 20:12 | -50.28695 | -72.16934 | 4421 ft | 237 kts | 266° |
| 2026-04-26 20:12 | -50.28825 | -72.19450 | 5530 ft | 228 kts | 268° |
| 2026-04-26 20:12 | -50.28930 | -72.21974 | 6262 ft | 235 kts | 268° |
| 2026-04-26 20:12 | -50.29084 | -72.24453 | 7324 ft | 226 kts | 268° |
| 2026-04-26 20:13 | -50.29250 | -72.26896 | 8161 ft | 227 kts | 268° |
| 2026-04-26 20:13 | -50.29414 | -72.29363 | 8974 ft | 228 kts | 268° |
| 2026-04-26 20:13 | -50.29567 | -72.31842 | 9787 ft | 230 kts | 269° |
| 2026-04-26 20:13 | -50.29715 | -72.34380 | 10345 ft | 244 kts | 268° |
| 2026-04-26 20:14 | -50.29871 | -72.37083 | 11051 ft | 253 kts | 267° |
| 2026-04-26 20:14 | -50.30409 | -72.39754 | 11958 ft | 263 kts | 246° |
| 2026-04-26 20:14 | -50.31555 | -72.42043 | 12953 ft | 274 kts | 227° |
| 2026-04-26 20:14 | -50.33164 | -72.43734 | 13928 ft | 282 kts | 219° |
| 2026-04-26 20:15 | -50.34871 | -72.45300 | 14729 ft | 286 kts | 218° |
| 2026-04-26 20:15 | -50.36721 | -72.46582 | 15495 ft | 302 kts | 200° |
| 2026-04-26 20:15 | -50.38856 | -72.46693 | 16317 ft | 321 kts | 177° |
| 2026-04-26 20:15 | -50.41004 | -72.45412 | 17000 ft | 346 kts | 153° |
| 2026-04-26 20:16 | -50.42787 | -72.42610 | 17184 ft | 383 kts | 125° |
| 2026-04-26 20:16 | -50.43891 | -72.38661 | 17411 ft | 408 kts | 110° |
| 2026-04-26 20:16 | -50.44723 | -72.34311 | 17905 ft | 420 kts | 107° |
| 2026-04-26 20:16 | -50.45513 | -72.29867 | 18631 ft | 422 kts | 108° |
| 2026-04-26 20:17 | -50.46337 | -72.25446 | 19317 ft | 424 kts | 109° |
| 2026-04-26 20:17 | -50.47219 | -72.21009 | 19931 ft | 428 kts | 110° |
| 2026-04-26 20:17 | -50.48148 | -72.16558 | 20539 ft | 432 kts | 110° |
| 2026-04-26 20:17 | -50.48781 | -72.13594 | 20941 ft | 434 kts | 111° |
| 2026-04-26 20:18 | -50.50073 | -72.07606 | 21758 ft | 438 kts | 111° |
| 2026-04-26 20:18 | -50.51056 | -72.03051 | 22347 ft | 442 kts | 111° |
| 2026-04-26 20:18 | -50.52043 | -71.98453 | 22928 ft | 446 kts | 110° |
| 2026-04-26 20:18 | -50.53037 | -71.93805 | 23487 ft | 450 kts | 110° |
| 2026-04-26 20:19 | -50.54035 | -71.89120 | 23956 ft | 453 kts | 110° |
| 2026-04-26 20:19 | -50.55034 | -71.84415 | 24419 ft | 456 kts | 110° |
| 2026-04-26 20:19 | -50.56048 | -71.79662 | 24891 ft | 458 kts | 112° |
| 2026-04-26 20:19 | -50.57481 | -71.75201 | 25298 ft | 456 kts | 129° |
| 2026-04-26 20:20 | -50.59520 | -71.71409 | 25778 ft | 455 kts | 135° |
| 2026-04-26 20:20 | -50.61654 | -71.67690 | 26215 ft | 458 kts | 136° |
| 2026-04-26 20:20 | -50.63804 | -71.63971 | 26619 ft | 462 kts | 135° |
| 2026-04-26 20:20 | -50.65943 | -71.60243 | 27004 ft | 465 kts | 135° |
| 2026-04-26 20:21 | -50.68109 | -71.56430 | 27424 ft | 468 kts | 135° |
| 2026-04-26 20:21 | -50.70279 | -71.52571 | 27842 ft | 470 kts | 135° |
| 2026-04-26 20:21 | -50.72447 | -71.48691 | 28242 ft | 473 kts | 134° |
| 2026-04-26 20:21 | -50.74626 | -71.44774 | 28626 ft | 476 kts | 134° |
| 2026-04-26 20:22 | -50.76820 | -71.40822 | 29005 ft | 478 kts | 134° |
| 2026-04-26 20:22 | -50.79015 | -71.36861 | 29388 ft | 480 kts | 134° |
| 2026-04-26 20:22 | -50.81196 | -71.32921 | 29751 ft | 483 kts | 134° |
| 2026-04-26 20:22 | -50.83443 | -71.28857 | 30075 ft | 485 kts | 134° |
| 2026-04-26 20:23 | -50.85638 | -71.24883 | 30367 ft | 487 kts | 134° |
| 2026-04-26 20:23 | -50.87872 | -71.20831 | 30678 ft | 489 kts | 134° |
| 2026-04-26 20:23 | -50.90104 | -71.16776 | 31012 ft | 489 kts | 134° |
| 2026-04-26 20:23 | -50.92339 | -71.12708 | 31437 ft | 487 kts | 134° |
| 2026-04-26 20:24 | -50.94555 | -71.08667 | 31902 ft | 485 kts | 134° |
| 2026-04-26 20:24 | -50.96762 | -71.04640 | 32323 ft | 483 kts | 135° |
| 2026-04-26 20:24 | -50.98964 | -71.00617 | 32704 ft | 482 kts | 135° |
| 2026-04-26 20:24 | -51.01018 | -70.96388 | 33049 ft | 488 kts | 123° |
| 2026-04-26 20:25 | -51.02343 | -70.91407 | 33407 ft | 493 kts | 105° |
| 2026-04-26 20:25 | -51.02748 | -70.87866 | 33700 ft | 493 kts | 98° |
| 2026-04-26 20:25 | -51.03259 | -70.80635 | 34198 ft | 491 kts | 97° |
| 2026-04-26 20:25 | -51.03602 | -70.75239 | 34468 ft | 492 kts | 97° |
| 2026-04-26 20:26 | -51.03964 | -70.69902 | 34740 ft | 491 kts | 98° |
| 2026-04-26 20:26 | -51.04362 | -70.64518 | 35063 ft | 490 kts | 99° |
| 2026-04-26 20:26 | -51.04777 | -70.59135 | 35405 ft | 488 kts | 99° |
| 2026-04-26 20:26 | -51.05209 | -70.53789 | 35719 ft | 487 kts | 103° |
| 2026-04-26 20:27 | -51.06183 | -70.48688 | 35945 ft | 480 kts | 120° |
| 2026-04-26 20:27 | -51.07935 | -70.44260 | 36247 ft | 470 kts | 132° |
| 2026-04-26 20:27 | -51.09937 | -70.40175 | 36619 ft | 467 kts | 133° |
| 2026-04-26 20:27 | -51.11958 | -70.36144 | 36926 ft | 466 kts | 134° |
| 2026-04-26 20:28 | -51.13985 | -70.32102 | 37198 ft | 466 kts | 134° |
| 2026-04-26 20:28 | -51.15990 | -70.28063 | 37488 ft | 465 kts | 133° |
| 2026-04-26 20:28 | -51.17980 | -70.24008 | 37812 ft | 463 kts | 133° |
| 2026-04-26 20:28 | -51.19953 | -70.19952 | 38112 ft | 462 kts | 133° |
| 2026-04-26 20:29 | -51.21916 | -70.15890 | 38383 ft | 462 kts | 133° |
| 2026-04-26 20:29 | -51.23871 | -70.11831 | 38634 ft | 461 kts | 133° |
| 2026-04-26 20:29 | -51.25823 | -70.07769 | 38840 ft | 461 kts | 133° |
| 2026-04-26 20:29 | -51.27775 | -70.03704 | 38944 ft | 462 kts | 133° |
| 2026-04-26 20:30 | -51.29736 | -69.99615 | 38945 ft | 463 kts | 133° |
| 2026-04-26 20:30 | -51.33623 | -69.91488 | 38955 ft | 461 kts | 133° |
| 2026-04-26 20:31 | -51.37505 | -69.83345 | 38961 ft | 459 kts | 133° |
| 2026-04-26 20:31 | -51.41362 | -69.75234 | 38960 ft | 457 kts | 133° |
| 2026-04-26 20:32 | -51.45201 | -69.67135 | 38965 ft | 456 kts | 133° |
| 2026-04-26 20:32 | -51.49034 | -69.59023 | 38970 ft | 456 kts | 133° |
| 2026-04-26 20:33 | -51.52868 | -69.50883 | 38973 ft | 456 kts | 133° |
| 2026-04-26 20:33 | -51.56671 | -69.42786 | 38975 ft | 457 kts | 133° |
| 2026-04-26 20:34 | -51.60772 | -69.35060 | 38968 ft | 449 kts | 145° |
| 2026-04-26 20:34 | -51.65900 | -69.29631 | 38965 ft | 436 kts | 162° |
| 2026-04-26 20:35 | -51.71479 | -69.25771 | 38970 ft | 436 kts | 163° |
| 2026-04-26 20:35 | -51.77084 | -69.21961 | 38970 ft | 438 kts | 162° |
| 2026-04-26 20:36 | -51.82697 | -69.18077 | 38974 ft | 439 kts | 162° |
| 2026-04-26 20:36 | -51.88312 | -69.14141 | 38972 ft | 440 kts | 162° |
| 2026-04-26 20:37 | -51.93901 | -69.10199 | 38967 ft | 441 kts | 162° |
| 2026-04-26 20:37 | -51.99528 | -69.06221 | 38970 ft | 441 kts | 162° |
| 2026-04-26 20:38 | -52.05155 | -69.02232 | 38963 ft | 441 kts | 162° |
| 2026-04-26 20:38 | -52.10781 | -68.98234 | 38956 ft | 441 kts | 162° |
| 2026-04-26 20:39 | -52.16406 | -68.94226 | 38957 ft | 440 kts | 162° |
| 2026-04-26 20:39 | -52.21985 | -68.90239 | 38948 ft | 440 kts | 162° |
| 2026-04-26 20:40 | -52.27588 | -68.86224 | 38966 ft | 439 kts | 162° |
| 2026-04-26 20:40 | -52.33183 | -68.82204 | 38946 ft | 439 kts | 162° |
| 2026-04-26 20:41 | -52.38773 | -68.78177 | 38949 ft | 439 kts | 162° |
| 2026-04-26 20:41 | -52.44366 | -68.74136 | 38944 ft | 439 kts | 162° |
| 2026-04-26 20:42 | -52.47262 | -68.72040 | 38945 ft | 439 kts | 162° |
| 2026-04-26 20:44 | -52.50394 | -68.69769 | 38939 ft | 439 kts | 162° |
| 2026-04-26 20:44 | -52.56890 | -68.65047 | 38937 ft | 439 kts | 162° |
| 2026-04-26 20:45 | -52.61569 | -68.61637 | 38937 ft | 439 kts | 162° |
| 2026-04-26 20:45 | -52.67127 | -68.57575 | 38931 ft | 440 kts | 162° |
| 2026-04-26 20:46 | -52.70694 | -68.54962 | 38933 ft | 440 kts | 162° |
| 2026-04-26 20:47 | -52.72122 | -68.53914 | 38930 ft | 440 kts | 162° |
| 2026-04-26 20:47 | -52.77724 | -68.49799 | 38925 ft | 441 kts | 162° |
| 2026-04-26 20:48 | -52.83332 | -68.45670 | 38925 ft | 441 kts | 162° |
| 2026-04-26 20:48 | -52.88951 | -68.41527 | 38918 ft | 442 kts | 162° |
| 2026-04-26 20:49 | -52.94581 | -68.37364 | 38921 ft | 443 kts | 162° |
| 2026-04-26 20:49 | -53.00172 | -68.33216 | 38917 ft | 443 kts | 162° |
| 2026-04-26 20:50 | -53.05804 | -68.29026 | 38911 ft | 443 kts | 162° |
| 2026-04-26 20:50 | -53.11429 | -68.24828 | 38907 ft | 443 kts | 161° |
| 2026-04-26 20:51 | -53.17051 | -68.20621 | 38905 ft | 443 kts | 161° |
| 2026-04-26 20:51 | -53.22679 | -68.16396 | 38901 ft | 443 kts | 161° |
| 2026-04-26 20:52 | -53.28266 | -68.12186 | 38658 ft | 434 kts | 161° |
| 2026-04-26 20:52 | -53.31013 | -68.10112 | 38034 ft | 433 kts | 162° |
| 2026-04-26 20:52 | -53.33758 | -68.08039 | 37390 ft | 433 kts | 161° |
| 2026-04-26 20:52 | -53.36501 | -68.05967 | 36786 ft | 432 kts | 161° |
| 2026-04-26 20:53 | -53.39237 | -68.03896 | 36196 ft | 431 kts | 161° |
| 2026-04-26 20:53 | -53.41992 | -68.01810 | 35329 ft | 437 kts | 161° |
| 2026-04-26 20:53 | -53.44793 | -67.99690 | 34373 ft | 446 kts | 161° |
| 2026-04-26 20:53 | -53.47651 | -67.97521 | 33358 ft | 454 kts | 161° |
| 2026-04-26 20:54 | -53.50550 | -67.95315 | 32344 ft | 460 kts | 161° |
| 2026-04-26 20:54 | -53.53449 | -67.93100 | 31568 ft | 461 kts | 161° |
| 2026-04-26 20:54 | -53.56352 | -67.90873 | 31060 ft | 456 kts | 161° |
| 2026-04-26 20:54 | -53.59220 | -67.88669 | 30575 ft | 450 kts | 161° |
| 2026-04-26 20:55 | -53.62056 | -67.86491 | 30031 ft | 447 kts | 161° |
| 2026-04-26 20:55 | -53.64882 | -67.84322 | 29383 ft | 443 kts | 161° |
| 2026-04-26 20:55 | -53.67678 | -67.82176 | 28766 ft | 439 kts | 161° |
| 2026-04-26 20:55 | -53.70519 | -67.80447 | 28141 ft | 433 kts | 163° |
| 2026-04-26 20:56 | -53.73194 | -67.78011 | 27532 ft | 437 kts | 152° |
| 2026-04-26 20:56 | -53.75749 | -67.75323 | 26954 ft | 430 kts | 158° |
| 2026-04-26 20:56 | -53.78474 | -67.73800 | 26500 ft | 405 kts | 176° |
| 2026-04-26 20:56 | -53.81272 | -67.73636 | 25481 ft | 396 kts | 188° |
| 2026-04-26 20:57 | -53.84005 | -67.73727 | 24452 ft | 400 kts | 185° |
| 2026-04-26 20:57 | -53.86784 | -67.73601 | 23604 ft | 398 kts | 182° |
| 2026-04-26 20:57 | -53.89528 | -67.73361 | 22732 ft | 392 kts | 181° |
| 2026-04-26 20:57 | -53.92231 | -67.73074 | 21911 ft | 386 kts | 181° |
| 2026-04-26 20:58 | -53.94884 | -67.72776 | 21100 ft | 380 kts | 181° |
| 2026-04-26 20:58 | -53.97509 | -67.72480 | 20322 ft | 374 kts | 181° |
| 2026-04-26 20:58 | -54.00075 | -67.72192 | 19819 ft | 366 kts | 181° |
| 2026-04-26 20:58 | -54.02607 | -67.71916 | 19333 ft | 364 kts | 181° |
| 2026-04-26 20:59 | -54.05126 | -67.71643 | 18868 ft | 361 kts | 181° |
| 2026-04-26 20:59 | -54.07618 | -67.71376 | 18397 ft | 359 kts | 181° |
| 2026-04-26 20:59 | -54.10109 | -67.71108 | 17907 ft | 356 kts | 181° |
| 2026-04-26 20:59 | -54.12580 | -67.70842 | 17394 ft | 354 kts | 181° |
| 2026-04-26 21:00 | -54.15026 | -67.70579 | 16916 ft | 350 kts | 181° |
| 2026-04-26 21:00 | -54.17416 | -67.70321 | 16471 ft | 347 kts | 181° |
| 2026-04-26 21:00 | -54.19816 | -67.70061 | 16018 ft | 344 kts | 181° |
| 2026-04-26 21:00 | -54.22195 | -67.69804 | 15572 ft | 341 kts | 181° |
| 2026-04-26 21:01 | -54.24554 | -67.69549 | 15144 ft | 338 kts | 181° |
| 2026-04-26 21:01 | -54.26895 | -67.69295 | 14710 ft | 336 kts | 181° |
| 2026-04-26 21:01 | -54.29226 | -67.69043 | 14284 ft | 334 kts | 181° |
| 2026-04-26 21:01 | -54.31544 | -67.68792 | 13858 ft | 333 kts | 181° |
| 2026-04-26 21:02 | -54.33825 | -67.68544 | 13399 ft | 331 kts | 181° |
| 2026-04-26 21:02 | -54.36118 | -67.68294 | 12927 ft | 329 kts | 181° |
| 2026-04-26 21:02 | -54.38397 | -67.68046 | 12480 ft | 327 kts | 181° |
| 2026-04-26 21:02 | -54.40654 | -67.67800 | 12038 ft | 324 kts | 181° |
| 2026-04-26 21:03 | -54.42892 | -67.67554 | 11619 ft | 321 kts | 181° |
| 2026-04-26 21:03 | -54.45117 | -67.67311 | 11197 ft | 319 kts | 181° |
| 2026-04-26 21:03 | -54.47331 | -67.67068 | 10787 ft | 317 kts | 181° |
| 2026-04-26 21:03 | -54.49525 | -67.66828 | 10474 ft | 311 kts | 182° |
| 2026-04-26 21:04 | -54.51655 | -67.66590 | 10285 ft | 305 kts | 182° |
| 2026-04-26 21:04 | -54.53765 | -67.66358 | 10141 ft | 302 kts | 182° |
| 2026-04-26 21:04 | -54.55806 | -67.66132 | 9994 ft | 293 kts | 182° |
| 2026-04-26 21:04 | -54.57806 | -67.65910 | 9870 ft | 283 kts | 182° |
| 2026-04-26 21:05 | -54.59754 | -67.65696 | 9622 ft | 279 kts | 182° |
| 2026-04-26 21:05 | -54.61680 | -67.65485 | 9293 ft | 273 kts | 182° |
| 2026-04-26 21:05 | -54.63547 | -67.65276 | 9006 ft | 264 kts | 182° |
| 2026-04-26 21:05 | -54.65326 | -67.65075 | 8880 ft | 249 kts | 183° |
| 2026-04-26 21:06 | -54.67023 | -67.64885 | 8650 ft | 239 kts | 183° |
| 2026-04-26 21:06 | -54.68648 | -67.64702 | 8438 ft | 229 kts | 183° |
| 2026-04-26 21:06 | -54.70227 | -67.64527 | 8185 ft | 227 kts | 183° |
| 2026-04-26 21:06 | -54.71783 | -67.64354 | 7936 ft | 226 kts | 183° |
| 2026-04-26 21:07 | -54.73335 | -67.64180 | 7767 ft | 221 kts | 183° |
| 2026-04-26 21:07 | -54.74861 | -67.64014 | 7545 ft | 219 kts | 183° |
| 2026-04-26 21:07 | -54.76377 | -67.63847 | 7255 ft | 217 kts | 183° |
| 2026-04-26 21:07 | -54.77829 | -67.63684 | 7211 ft | 205 kts | 183° |
| 2026-04-26 21:08 | -54.79229 | -67.63702 | 7097 ft | 195 kts | 202° |
| 2026-04-26 21:08 | -54.80327 | -67.64806 | 7050 ft | 175 kts | 229° |
| 2026-04-26 21:08 | -54.81104 | -67.66332 | 6988 ft | 163 kts | 248° |
| 2026-04-26 21:08 | -54.81456 | -67.68187 | 6815 ft | 165 kts | 247° |
| 2026-04-26 21:09 | -54.81902 | -67.69940 | 6701 ft | 157 kts | 267° |
| 2026-04-26 21:09 | -54.81948 | -67.71863 | 6544 ft | 162 kts | 268° |
| 2026-04-26 21:09 | -54.82035 | -67.73848 | 6326 ft | 167 kts | 264° |
| 2026-04-26 21:09 | -54.82223 | -67.75798 | 6132 ft | 162 kts | 263° |
| 2026-04-26 21:10 | -54.82372 | -67.77710 | 5938 ft | 159 kts | 266° |
| 2026-04-26 21:10 | -54.82480 | -67.79607 | 5749 ft | 156 kts | 267° |
| 2026-04-26 21:10 | -54.82566 | -67.81483 | 5546 ft | 157 kts | 268° |
| 2026-04-26 21:10 | -54.82640 | -67.83334 | 5368 ft | 155 kts | 268° |
| 2026-04-26 21:11 | -54.82711 | -67.85221 | 5297 ft | 162 kts | 268° |
| 2026-04-26 21:11 | -54.82780 | -67.87145 | 5264 ft | 157 kts | 269° |
| 2026-04-26 21:11 | -54.82847 | -67.89058 | 5283 ft | 162 kts | 269° |
| 2026-04-26 21:11 | -54.82915 | -67.91043 | 5050 ft | 165 kts | 269° |
| 2026-04-26 21:12 | -54.82986 | -67.93007 | 4843 ft | 164 kts | 269° |
| 2026-04-26 21:12 | -54.83056 | -67.94991 | 4564 ft | 161 kts | 269° |
| 2026-04-26 21:12 | -54.83124 | -67.96900 | 4290 ft | 156 kts | 269° |
| 2026-04-26 21:12 | -54.83191 | -67.98796 | 4036 ft | 159 kts | 270° |
| 2026-04-26 21:13 | -54.83258 | -68.00691 | 3813 ft | 160 kts | 270° |
| 2026-04-26 21:13 | -54.83328 | -68.02612 | 3534 ft | 160 kts | 270° |
| 2026-04-26 21:13 | -54.83397 | -68.04559 | 3259 ft | 161 kts | 270° |
| 2026-04-26 21:13 | -54.83465 | -68.06498 | 2999 ft | 161 kts | 270° |
| 2026-04-26 21:14 | -54.83536 | -68.08346 | 2725 ft | 146 kts | 270° |
| 2026-04-26 21:14 | -54.83599 | -68.10039 | 2495 ft | 136 kts | 270° |
| 2026-04-26 21:14 | -54.83657 | -68.11651 | 2281 ft | 133 kts | 271° |
| 2026-04-26 21:14 | -54.83715 | -68.13271 | 2079 ft | 135 kts | 270° |
| 2026-04-26 21:15 | -54.83776 | -68.14896 | 1847 ft | 135 kts | 270° |
| 2026-04-26 21:15 | -54.83836 | -68.16527 | 1604 ft | 137 kts | 269° |
| 2026-04-26 21:15 | -54.83898 | -68.18175 | 1370 ft | 138 kts | 269° |
| 2026-04-26 21:15 | -54.83961 | -68.19863 | 1094 ft | 142 kts | 268° |
| 2026-04-26 21:16 | -54.84014 | -68.21597 | 773 ft | 141 kts | 268° |
| 2026-04-26 21:16 | -54.84063 | -68.23250 | 521 ft | 133 kts | 264° |
| 2026-04-26 21:16 | -54.84138 | -68.24783 | 320 ft | 127 kts | 262° |
| 2026-04-26 21:16 | -54.84201 | -68.26296 | 210 ft | 125 kts | 262° |
| 2026-04-26 21:17 | -54.84264 | -68.27793 | 98 ft | 122 kts | 263° |
| 2026-04-26 21:17 | -54.84316 | -68.29096 | 84 ft | 89 kts | 266° |
| 2026-04-26 21:17 | -54.84345 | -68.29902 | 82 ft | 45 kts | 266° |
| 2026-04-26 21:17 | -54.84364 | -68.30399 | 80 ft | 39 kts | 266° |
| 2026-04-26 21:18 | -54.84382 | -68.30809 | 86 ft | 23 kts | 266° |
| 2026-04-26 21:18 | -54.84319 | -68.30959 | 85 ft | 17 kts | 356° |
| 2026-04-26 21:18 | -54.84206 | -68.30974 | 84 ft | 11 kts | 354° |
| 2026-04-26 21:18 | -54.84183 | -68.30978 | 84 ft | 3 kts | 354° |
| 2026-04-26 21:19 | -54.84161 | -68.30981 | 83 ft | 3 kts | 354° |
| 2026-04-26 21:19 | -54.84139 | -68.30985 | 85 ft | 3 kts | 354° |
| 2026-04-26 21:19 | -54.84111 | -68.30991 | 85 ft | 4 kts | 346° |
| 2026-04-26 21:19 | -54.84091 | -68.31026 | 85 ft | 4 kts | 289° |
| 2026-04-26 21:20 | -54.84091 | -68.31079 | 82 ft | 4 kts | 270° |
| 2026-04-26 21:20 | -54.84081 | -68.31098 | 82 ft | 2 kts | 342° |
| 2026-04-26 21:20 | -54.84069 | -68.31101 | 83 ft | 2 kts | 350° |
| 2026-04-26 21:20 | -54.84049 | -68.31107 | 83 ft | 4 kts | 353° |
| 2026-04-26 21:21 | -54.84031 | -68.31110 | 83 ft | 2 kts | 355° |
| 2026-04-26 21:21 | -54.84024 | -68.31111 | 83 ft | 1 kts | 355° |
| 2026-04-26 21:21 | -54.84022 | -68.31111 | 87 ft | 0 kts | 355° |